createdAt,value
2019-04-11T00:02:06.733Z,9.94
2019-04-11T00:04:38.618Z,9.92
2019-04-11T00:07:10.718Z,9.91
2019-04-11T00:09:42.883Z,9.82
2019-04-11T00:12:14.738Z,9.76
2019-04-11T00:14:46.883Z,9.68
2019-04-11T00:17:19.590Z,9.73
2019-04-11T00:19:51.609Z,9.68
2019-04-11T00:22:24.186Z,9.68
2019-04-11T00:24:55.924Z,9.61
2019-04-11T00:27:28.933Z,9.57
2019-04-11T00:30:01.626Z,9.46
2019-04-11T00:32:34.188Z,9.40
2019-04-11T00:35:07.173Z,9.45
2019-04-11T00:37:39.188Z,9.38
2019-04-11T00:40:11.123Z,9.12
2019-04-11T00:42:43.025Z,9.08
2019-04-11T00:45:15.804Z,9.06
2019-04-11T00:47:47.682Z,9.03
2019-04-11T00:50:19.437Z,9.09
2019-04-11T00:52:51.660Z,9.12
2019-04-11T00:55:23.859Z,9.02
2019-04-11T00:57:55.681Z,8.94
2019-04-11T01:00:29.184Z,8.78
2019-04-11T01:03:03.813Z,8.70
2019-04-11T01:05:37.118Z,8.76
2019-04-11T01:08:09.550Z,8.67
2019-04-11T01:10:43.607Z,8.57
2019-04-11T01:13:17.492Z,8.55
2019-04-11T01:16:01.116Z,8.52
2019-04-11T01:18:33.961Z,8.66
2019-04-11T01:21:06.221Z,8.59
2019-04-11T01:23:38.122Z,8.70
2019-04-11T01:26:10.922Z,8.66
2019-04-11T01:28:42.886Z,8.78
2019-04-11T01:31:17.719Z,8.77
2019-04-11T01:33:49.845Z,8.86
2019-04-11T01:36:22.670Z,8.72
2019-04-11T01:38:57.087Z,8.44
2019-04-11T01:41:28.874Z,8.45
2019-04-11T01:44:04.149Z,8.26
2019-04-11T01:46:34.308Z,8.13
2019-04-11T01:49:17.069Z,8.05
2019-04-11T01:51:49.759Z,7.95
2019-04-11T01:54:22.053Z,7.90
2019-04-11T01:56:55.795Z,7.79
2019-04-11T01:59:29.071Z,7.70
2019-04-11T02:02:23.947Z,7.62
2019-04-11T02:05:08.464Z,7.63
2019-04-11T02:07:40.708Z,7.61
2019-04-11T02:10:12.854Z,7.59
2019-04-11T02:12:45.608Z,7.57
2019-04-11T02:15:17.827Z,7.69
2019-04-11T02:17:52.388Z,7.74
2019-04-11T02:20:24.938Z,7.71
2019-04-11T02:23:04.657Z,7.63
2019-04-11T02:25:54.518Z,7.62
2019-04-11T02:28:26.600Z,7.77
2019-04-11T02:31:00.104Z,7.76
2019-04-11T02:33:32.948Z,7.81
2019-04-11T02:36:07.912Z,7.77
2019-04-11T02:38:41.305Z,7.77
2019-04-11T02:41:14.185Z,7.76
2019-04-11T02:43:46.803Z,7.82
2019-04-11T02:46:28.333Z,7.70
2019-04-11T02:48:54.323Z,7.61
2019-04-11T02:51:27.023Z,7.57
2019-04-11T02:53:59.296Z,7.60
2019-04-11T02:56:31.350Z,7.39
2019-04-11T02:59:05.376Z,7.34
2019-04-11T03:01:37.514Z,7.26
2019-04-11T03:04:10.475Z,7.16
2019-04-11T03:06:43.874Z,7.21
2019-04-11T03:09:17.794Z,7.08
2019-04-11T03:11:51.482Z,7.30
2019-04-11T03:14:23.353Z,7.43
2019-04-11T03:17:02.429Z,7.36
2019-04-11T03:19:42.269Z,7.41
2019-04-11T03:22:03.313Z,7.36
2019-04-11T03:24:36.014Z,7.17
2019-04-11T03:27:10.076Z,7.08
2019-04-11T03:29:43.103Z,7.05
2019-04-11T03:33:11.307Z,7.19
2019-04-11T03:35:34.819Z,7.08
2019-04-11T03:37:51.816Z,7.01
2019-04-11T03:40:19.023Z,6.83
2019-04-11T03:42:44.848Z,6.72
2019-04-11T03:45:25.881Z,6.66
2019-04-11T03:47:52.526Z,6.70
2019-04-11T03:50:16.503Z,6.65
2019-04-11T03:52:45.187Z,6.58
2019-04-11T03:55:17.091Z,6.76
2019-04-11T03:57:49.248Z,6.65
2019-04-11T04:00:24.738Z,6.65
2019-04-11T04:02:57.426Z,6.58
2019-04-11T04:05:32.224Z,6.67
2019-04-11T04:08:04.522Z,6.76
2019-04-11T04:10:39.592Z,6.73
2019-04-11T04:13:16.229Z,6.76
2019-04-11T04:16:03.957Z,6.81
2019-04-11T04:19:05.304Z,6.87
2019-04-11T04:21:47.025Z,6.90
2019-04-11T04:24:37.884Z,6.87
2019-04-11T04:27:09.032Z,6.75
2019-04-11T04:29:41.304Z,6.67
2019-04-11T04:32:14.196Z,6.60
2019-04-11T04:34:48.118Z,6.64
2019-04-11T04:37:21.431Z,6.83
2019-04-11T04:40:13.567Z,6.94
2019-04-11T04:42:33.326Z,7.02
2019-04-11T04:45:02.852Z,7.01
2019-04-11T04:47:42.662Z,7.00
2019-04-11T04:50:11.058Z,7.01
2019-04-11T04:52:43.011Z,6.99
2019-04-11T04:55:14.754Z,6.91
2019-04-11T04:57:46.538Z,7.02
2019-04-11T05:00:18.810Z,7.11
2019-04-11T05:02:52.268Z,7.36
2019-04-11T05:05:24.487Z,7.42
2019-04-11T05:08:00.403Z,7.48
2019-04-11T05:10:32.769Z,7.63
2019-04-11T05:13:05.837Z,7.49
2019-04-11T05:15:38.687Z,7.42
2019-04-11T05:18:11.398Z,7.36
2019-04-11T05:20:44.307Z,7.36
2019-04-11T05:23:16.985Z,7.40
2019-04-11T05:25:48.804Z,7.52
2019-04-11T05:28:21.437Z,7.60
2019-04-11T05:30:53.553Z,7.55
2019-04-11T05:33:25.401Z,7.47
2019-04-11T05:35:58.592Z,7.40
2019-04-11T05:38:30.708Z,7.36
2019-04-11T05:41:02.438Z,7.28
2019-04-11T05:43:37.299Z,7.32
2019-04-11T05:46:25.115Z,7.22
2019-04-11T05:49:03.864Z,7.19
2019-04-11T05:51:39.954Z,7.09
2019-04-11T05:54:10.704Z,7.09
2019-04-11T05:56:43.717Z,6.98
2019-04-11T05:59:21.489Z,7.00
2019-04-11T06:02:02.652Z,6.92
2019-04-11T06:04:50.062Z,6.87
2019-04-11T06:07:46.962Z,6.79
2019-04-11T06:10:20.252Z,6.73
2019-04-11T06:13:10.213Z,6.84
2019-04-11T06:15:44.447Z,6.91
2019-04-11T06:18:37.743Z,7.12
2019-04-11T06:21:14.283Z,7.18
2019-04-11T06:24:03.592Z,7.14
2019-04-11T06:27:02.526Z,7.26
2019-04-11T06:29:39.641Z,7.36
2019-04-11T06:32:29.700Z,7.42
2019-04-11T06:35:06.699Z,7.44
2019-04-11T06:37:59.096Z,7.45
2019-04-11T06:40:36.684Z,7.48
2019-04-11T06:43:30.368Z,7.52
2019-04-11T06:46:36.525Z,7.54
2019-04-11T06:49:14.595Z,7.54
2019-04-11T06:51:50.444Z,7.55
2019-04-11T06:54:28.629Z,7.57
2019-04-11T06:57:01.752Z,7.49
2019-04-11T06:59:37.132Z,7.49
2019-04-11T07:02:18.065Z,7.47
2019-04-11T07:04:54.805Z,7.61
2019-04-11T07:07:29.476Z,7.69
2019-04-11T07:10:04.070Z,7.70
2019-04-11T07:12:59.319Z,7.79
2019-04-11T07:15:37.972Z,7.84
2019-04-11T07:18:27.163Z,7.95
2019-04-11T07:21:08.493Z,7.92
2019-04-11T07:23:57.928Z,8.07
2019-04-11T07:26:38.388Z,8.15
2019-04-11T07:29:33.724Z,8.15
2019-04-11T07:32:09.439Z,8.21
2019-04-11T07:34:59.998Z,8.45
2019-04-11T07:37:53.179Z,8.39
2019-04-11T07:40:43.044Z,8.45
2019-04-11T07:43:35.435Z,8.35
2019-04-11T07:46:27.372Z,8.61
2019-04-11T07:49:04.110Z,8.84
2019-04-11T07:51:46.302Z,9.06
2019-04-11T07:54:20.395Z,9.05
2019-04-11T07:57:03.868Z,9.17
2019-04-11T07:59:55.686Z,9.02
2019-04-11T08:02:45.645Z,9.18
2019-04-11T08:05:37.401Z,9.31
2019-04-11T08:08:37.100Z,9.18
2019-04-11T08:11:16.138Z,9.20
2019-04-11T08:14:12.669Z,9.18
2019-04-11T08:16:59.523Z,9.42
2019-04-11T08:19:51.272Z,9.43
2019-04-11T08:22:37.462Z,9.62
2019-04-11T08:25:27.138Z,9.45
2019-04-11T08:28:05.874Z,9.46
2019-04-11T08:30:50.996Z,9.47
2019-04-11T08:33:24.717Z,9.30
2019-04-11T08:36:22.008Z,9.43
2019-04-11T08:38:54.370Z,9.43
2019-04-11T08:41:59.016Z,9.48
2019-04-11T08:44:34.320Z,9.60
2019-04-11T08:47:09.917Z,9.80
2019-04-11T08:49:48.083Z,9.89
2019-04-11T08:52:31.921Z,10.03
2019-04-11T08:55:10.903Z,9.93
2019-04-11T08:57:45.400Z,10.24
2019-04-11T09:00:40.368Z,10.21
2019-04-11T09:03:56.554Z,10.27
2019-04-11T09:06:23.373Z,10.25
2019-04-11T09:09:13.247Z,10.23
2019-04-11T09:11:58.230Z,10.50
2019-04-11T09:14:48.977Z,10.45
2019-04-11T09:17:28.215Z,10.55
2019-04-11T09:20:19.086Z,10.80
2019-04-11T09:22:53.425Z,10.66
2019-04-11T09:25:43.492Z,10.99
2019-04-11T09:28:17.549Z,11.13
2019-04-11T09:31:09.319Z,11.17
2019-04-11T09:34:17.608Z,11.22
2019-04-11T09:36:58.121Z,11.09
2019-04-11T09:39:48.674Z,10.93
2019-04-11T09:42:40.883Z,11.02
2019-04-11T09:45:35.191Z,10.89
2019-04-11T09:48:33.531Z,11.12
2019-04-11T09:51:40.094Z,11.70
2019-04-11T09:54:32.433Z,11.89
2019-04-11T09:57:26.799Z,11.77
2019-04-11T10:00:26.976Z,12.45
2019-04-11T10:03:06.635Z,11.93
2019-04-11T10:06:00.428Z,12.03
2019-04-11T10:08:43.670Z,12.50
2019-04-11T10:11:34.486Z,12.97
2019-04-11T10:14:09.376Z,13.60
2019-04-11T10:17:00.155Z,13.96
2019-04-11T10:19:52.012Z,14.29
2019-04-11T10:22:49.140Z,15.38
2019-04-11T10:25:32.570Z,16.89
2019-04-11T10:28:29.883Z,17.85
2019-04-11T10:31:10.647Z,19.04
2019-04-11T10:34:01.430Z,19.39
2019-04-11T10:36:55.864Z,19.83
2019-04-11T10:39:46.464Z,20.21
2019-04-11T10:42:18.224Z,20.03
2019-04-11T10:45:07.345Z,21.30
2019-04-11T10:47:39.089Z,21.63
2019-04-11T10:50:21.851Z,21.41
2019-04-11T10:52:56.153Z,22.14
2019-04-11T10:55:53.722Z,22.47
2019-04-11T10:58:33.040Z,21.37
2019-04-11T11:01:26.792Z,22.81
2019-04-11T11:04:09.883Z,22.39
2019-04-11T11:06:44.923Z,23.85
2019-04-11T11:09:32.234Z,23.61
2019-04-11T11:12:15.023Z,23.69
2019-04-11T11:15:11.762Z,20.45
2019-04-11T11:18:35.191Z,21.77
2019-04-11T11:21:00.633Z,21.88
2019-04-11T11:23:49.361Z,23.57
2019-04-11T11:26:28.006Z,22.99
2019-04-11T11:29:18.911Z,23.42
2019-04-11T11:31:56.470Z,22.51
2019-04-11T11:34:49.245Z,23.95
2019-04-11T11:37:35.580Z,22.85
2019-04-11T11:40:32.561Z,21.94
2019-04-11T11:43:14.743Z,21.78
2019-04-11T11:46:04.155Z,22.01
2019-04-11T11:48:40.301Z,22.77
2019-04-11T11:51:31.028Z,23.31
2019-04-11T11:54:07.330Z,22.36
2019-04-11T11:56:42.464Z,22.49
2019-04-11T11:59:18.252Z,23.73
2019-04-11T12:01:57.306Z,21.40
2019-04-11T12:04:46.621Z,21.27
2019-04-11T12:07:21.071Z,22.00
2019-04-11T12:10:11.405Z,21.50
2019-04-11T12:13:20.156Z,22.00
2019-04-11T12:16:03.957Z,22.35
2019-04-11T12:18:54.978Z,21.31
2019-04-11T12:21:31.467Z,20.30
2019-04-11T12:24:29.523Z,20.89
2019-04-11T12:27:20.555Z,20.35
2019-04-11T12:30:23.376Z,20.18
2019-04-11T12:33:03.648Z,20.11
2019-04-11T12:35:52.821Z,20.51
2019-04-11T12:38:49.619Z,20.39
2019-04-11T12:41:46.051Z,20.58
2019-04-11T12:44:45.675Z,20.58
2019-04-11T12:47:45.265Z,19.54
2019-04-11T12:50:48.440Z,19.69
2019-04-11T12:53:22.310Z,20.12
2019-04-11T12:56:16.096Z,20.53
2019-04-11T12:58:53.692Z,20.50
2019-04-11T13:01:45.527Z,20.23
2019-04-11T13:04:21.015Z,19.83
2019-04-11T13:07:12.037Z,20.22
2019-04-11T13:10:12.467Z,20.30
2019-04-11T13:13:21.240Z,20.44
2019-04-11T13:16:11.831Z,20.60
2019-04-11T13:19:03.537Z,21.06
2019-04-11T13:22:06.601Z,21.51
2019-04-11T13:25:06.008Z,21.68
2019-04-11T13:27:47.376Z,20.51
2019-04-11T13:30:53.236Z,21.44
2019-04-11T13:33:27.040Z,21.43
2019-04-11T13:36:18.246Z,21.75
2019-04-11T13:38:51.648Z,21.39
2019-04-11T13:42:00.451Z,20.71
2019-04-11T13:44:35.743Z,20.89
2019-04-11T13:47:25.015Z,20.58
2019-04-11T13:49:59.431Z,21.27
2019-04-11T13:52:50.045Z,21.23
2019-04-11T13:55:26.603Z,20.89
2019-04-11T13:58:17.160Z,21.40
2019-04-11T14:00:52.657Z,20.75
2019-04-11T14:03:43.237Z,20.38
2019-04-11T14:06:19.823Z,20.20
2019-04-11T14:09:14.969Z,19.86
2019-04-11T14:11:48.561Z,20.17
2019-04-11T14:14:41.935Z,20.45
2019-04-11T14:17:32.475Z,20.08
2019-04-11T14:20:35.208Z,20.18
2019-04-11T14:23:26.898Z,20.11
2019-04-11T14:26:37.583Z,20.23
2019-04-11T14:29:18.096Z,20.33
2019-04-11T14:31:56.111Z,20.34
2019-04-11T14:34:46.677Z,20.17
2019-04-11T14:37:37.802Z,19.99
2019-04-11T14:40:13.873Z,19.07
2019-04-11T14:43:04.434Z,19.04
2019-04-11T14:46:00.387Z,19.33
2019-04-11T14:48:40.735Z,19.19
2019-04-11T14:51:49.582Z,19.53
2019-04-11T14:54:27.740Z,19.72
2019-04-11T14:57:06.600Z,19.39
2019-04-11T14:59:42.022Z,20.11
2019-04-11T15:02:35.177Z,20.29
2019-04-11T15:05:13.826Z,19.83
2019-04-11T15:07:46.752Z,20.05
2019-04-11T15:10:49.775Z,19.45
2019-04-11T15:13:25.045Z,19.30
2019-04-11T15:16:14.328Z,19.47
2019-04-11T15:18:52.682Z,19.41
2019-04-11T15:21:43.327Z,19.34
2019-04-11T15:24:16.198Z,19.26
2019-04-11T15:27:18.970Z,18.92
2019-04-11T15:29:50.714Z,19.45
2019-04-11T15:32:36.517Z,19.33
2019-04-11T15:35:13.376Z,19.01
2019-04-11T15:38:02.148Z,19.04
2019-04-11T15:40:39.497Z,18.85
2019-04-11T15:43:30.081Z,18.97
2019-04-11T15:46:04.643Z,18.90
2019-04-11T15:48:57.986Z,18.73
2019-04-11T15:51:35.754Z,18.61
2019-04-11T15:54:26.357Z,18.33
2019-04-11T15:57:19.701Z,18.24
2019-04-11T16:00:28.320Z,18.22
2019-04-11T16:03:06.237Z,18.25
2019-04-11T16:06:02.113Z,18.33
2019-04-11T16:08:47.293Z,18.18
2019-04-11T16:11:52.970Z,17.95
2019-04-11T16:14:43.647Z,17.82
2019-04-11T16:17:36.123Z,17.71
2019-04-11T16:20:20.115Z,17.84
2019-04-11T16:23:10.673Z,17.76
2019-04-11T16:25:48.561Z,17.72
2019-04-11T16:28:38.886Z,17.60
2019-04-11T16:31:13.553Z,17.29
2019-04-11T16:34:15.788Z,17.29
2019-04-11T16:36:52.657Z,17.50
2019-04-11T16:39:49.968Z,17.31
2019-04-11T16:42:44.786Z,17.04
2019-04-11T16:45:33.319Z,17.48
2019-04-11T16:48:05.044Z,17.61
2019-04-11T16:50:36.778Z,17.28
2019-04-11T16:53:11.487Z,17.06
2019-04-11T16:55:43.339Z,16.98
2019-04-11T16:58:19.230Z,17.18
2019-04-11T17:00:52.060Z,17.19
2019-04-11T17:03:24.820Z,16.97
2019-04-11T17:06:06.198Z,16.86
2019-04-11T17:08:45.915Z,16.89
2019-04-11T17:11:19.836Z,17.02
2019-04-11T17:13:56.988Z,17.16
2019-04-11T17:16:30.121Z,16.80
2019-04-11T17:19:00.146Z,16.93
2019-04-11T17:21:42.789Z,17.20
2019-04-11T17:24:08.117Z,17.01
2019-04-11T17:26:39.844Z,17.06
2019-04-11T17:29:12.876Z,16.56
2019-04-11T17:31:44.636Z,16.59
2019-04-11T17:34:16.376Z,16.58
2019-04-11T17:36:48.117Z,16.34
2019-04-11T17:39:19.856Z,16.46
2019-04-11T17:41:51.577Z,16.43
2019-04-11T17:44:23.311Z,16.25
2019-04-11T17:46:56.757Z,16.12
2019-04-11T17:49:28.530Z,16.00
2019-04-11T17:52:00.251Z,16.04
2019-04-11T17:54:32.060Z,15.97
2019-04-11T17:57:03.790Z,15.94
2019-04-11T17:59:35.507Z,15.83
2019-04-11T18:02:10.333Z,15.90
2019-04-11T18:04:45.723Z,15.74
2019-04-11T18:07:17.628Z,15.64
2019-04-11T18:09:56.650Z,15.63
2019-04-11T18:12:30.710Z,15.68
2019-04-11T18:15:04.460Z,15.49
2019-04-11T18:17:38.103Z,15.50
2019-04-11T18:20:09.912Z,15.48
2019-04-11T18:22:45.789Z,15.35
2019-04-11T18:25:15.114Z,15.26
2019-04-11T18:27:46.853Z,15.24
2019-04-11T18:30:20.890Z,15.10
2019-04-11T18:32:52.984Z,15.01
2019-04-11T18:35:24.807Z,14.92
2019-04-11T18:37:56.550Z,14.68
2019-04-11T18:40:30.378Z,14.76
2019-04-11T18:43:02.101Z,14.63
2019-04-11T18:45:35.834Z,14.58
2019-04-11T18:48:07.603Z,14.64
2019-04-11T18:50:39.369Z,14.61
2019-04-11T18:53:12.206Z,14.56
2019-04-11T18:55:44.070Z,14.61
2019-04-11T18:58:15.827Z,14.55
2019-04-11T19:00:47.616Z,14.50
2019-04-11T19:03:19.673Z,14.44
2019-04-11T19:05:51.779Z,14.46
2019-04-11T19:08:23.650Z,14.40
2019-04-11T19:10:55.425Z,14.31
2019-04-11T19:13:28.020Z,14.26
2019-04-11T19:15:59.795Z,14.17
2019-04-11T19:18:32.006Z,14.09
2019-04-11T19:21:03.808Z,13.89
2019-04-11T19:23:36.725Z,13.82
2019-04-11T19:26:09.090Z,13.81
2019-04-11T19:28:40.917Z,13.74
2019-04-11T19:31:12.654Z,13.67
2019-04-11T19:33:47.350Z,13.59
2019-04-11T19:36:19.093Z,13.55
2019-04-11T19:38:50.940Z,13.36
2019-04-11T19:41:22.697Z,13.17
2019-04-11T19:43:54.779Z,13.17
2019-04-11T19:46:26.520Z,13.08
2019-04-11T19:48:59.482Z,13.02
2019-04-11T19:51:31.366Z,12.91
2019-04-11T19:54:03.888Z,12.95
2019-04-11T19:56:48.999Z,12.86
2019-04-11T19:59:20.753Z,12.79
2019-04-11T20:01:53.200Z,12.68
2019-04-11T20:04:25.744Z,12.62
2019-04-11T20:07:00.872Z,12.61
2019-04-11T20:09:32.653Z,12.57
2019-04-11T20:12:04.389Z,12.60
2019-04-11T20:14:37.757Z,12.54
2019-04-11T20:17:09.493Z,12.50
2019-04-11T20:19:41.699Z,12.34
2019-04-11T20:22:13.518Z,12.37
2019-04-11T20:24:46.924Z,12.37
2019-04-11T20:27:20.390Z,12.37
2019-04-11T20:29:55.299Z,12.39
2019-04-11T20:32:25.795Z,12.30
2019-04-11T20:34:57.547Z,12.32
2019-04-11T20:37:39.027Z,12.32
2019-04-11T20:40:04.592Z,12.14
2019-04-11T20:42:36.377Z,11.98
2019-04-11T20:45:10.439Z,11.98
2019-04-11T20:47:43.836Z,12.08
2019-04-11T20:50:15.674Z,12.03
2019-04-11T20:52:48.974Z,11.96
2019-04-11T20:55:21.306Z,11.99
2019-04-11T20:57:55.505Z,12.04
2019-04-11T21:00:29.753Z,11.85
2019-04-11T21:03:01.532Z,11.89
2019-04-11T21:05:38.366Z,11.65
2019-04-11T21:08:10.148Z,11.50
2019-04-11T21:10:41.970Z,11.13
2019-04-11T21:13:14.119Z,10.86
2019-04-11T21:15:45.882Z,10.89
2019-04-11T21:18:17.620Z,10.94
2019-04-11T21:20:49.934Z,11.12
2019-04-11T21:23:24.596Z,11.11
2019-04-11T21:25:58.868Z,11.16
2019-04-11T21:28:30.278Z,11.28
2019-04-11T21:31:02.343Z,11.07
2019-04-11T21:33:35.014Z,11.01
2019-04-11T21:36:08.069Z,10.88
2019-04-11T21:38:39.827Z,10.75
2019-04-11T21:41:11.576Z,10.63
2019-04-11T21:43:43.398Z,10.77
2019-04-11T21:46:16.966Z,10.81
2019-04-11T21:48:48.687Z,10.81
2019-04-11T21:51:20.531Z,10.62
2019-04-11T21:53:54.043Z,10.52
2019-04-11T21:56:28.967Z,10.54
2019-04-11T21:59:01.123Z,10.27
2019-04-11T22:01:32.950Z,10.28
2019-04-11T22:04:04.857Z,10.44
2019-04-11T22:06:36.901Z,10.32
2019-04-11T22:09:09.155Z,10.30
2019-04-11T22:11:41.192Z,10.25
2019-04-11T22:14:14.004Z,10.17
2019-04-11T22:16:45.758Z,10.16
2019-04-11T22:19:17.516Z,10.15
2019-04-11T22:21:49.363Z,10.11
2019-04-11T22:24:21.153Z,10.22
2019-04-11T22:26:53.678Z,10.15
2019-04-11T22:29:25.644Z,9.98
2019-04-11T22:31:57.545Z,9.81
2019-04-11T22:34:56.778Z,9.84
2019-04-11T22:37:30.127Z,9.79
2019-04-11T22:40:03.915Z,9.95
2019-04-11T22:42:35.669Z,10.11
2019-04-11T22:45:08.499Z,9.75
2019-04-11T22:47:40.828Z,9.66
2019-04-11T22:50:14.300Z,9.69
2019-04-11T22:52:46.323Z,9.58
2019-04-11T22:55:18.065Z,9.43
2019-04-11T22:57:49.849Z,9.39
2019-04-11T23:00:22.756Z,9.19
2019-04-11T23:03:01.297Z,9.23
2019-04-11T23:05:33.152Z,9.09
2019-04-11T23:08:05.042Z,9.00
2019-04-11T23:10:39.457Z,8.87
2019-04-11T23:13:11.250Z,9.11
2019-04-11T23:15:44.415Z,9.03
2019-04-11T23:18:17.936Z,8.86
2019-04-11T23:20:49.728Z,8.83
2019-04-11T23:23:22.175Z,8.94
2019-04-11T23:25:53.974Z,8.93
2019-04-11T23:28:25.817Z,8.91
2019-04-11T23:30:57.689Z,9.08
2019-04-11T23:33:29.475Z,9.08
2019-04-11T23:36:01.297Z,9.11
2019-04-11T23:38:33.072Z,9.10
2019-04-11T23:41:05.377Z,9.04
2019-04-11T23:43:37.170Z,8.98
2019-04-11T23:46:09.139Z,8.93
2019-04-11T23:48:40.879Z,8.83
2019-04-11T23:51:12.663Z,8.85
2019-04-11T23:53:44.413Z,8.87
2019-04-11T23:56:16.182Z,8.82
2019-04-11T23:58:47.915Z,8.66
